sensor_id;sensor_type;location;lat;lon;timestamp;temperature;humidity
56240;DHT22;42154;51.992;5.896;2023-05-07T00:02:06;16.00;99.90
56240;DHT22;42154;51.992;5.896;2023-05-07T00:04:33;15.90;99.90
56240;DHT22;42154;51.992;5.896;2023-05-07T00:07:02;15.90;99.90
56240;DHT22;42154;51.992;5.896;2023-05-07T00:09:28;15.90;99.90
56240;DHT22;42154;51.992;5.896;2023-05-07T00:11:54;15.90;99.90
56240;DHT22;42154;51.992;5.896;2023-05-07T00:14:20;15.90;99.90
56240;DHT22;42154;51.992;5.896;2023-05-07T00:16:46;15.80;99.90
56240;DHT22;42154;51.992;5.896;2023-05-07T00:19:12;15.80;99.90
56240;DHT22;42154;51.992;5.896;2023-05-07T00:21:38;15.80;99.90
56240;DHT22;42154;51.992;5.896;2023-05-07T00:24:04;15.80;99.90
56240;DHT22;42154;51.992;5.896;2023-05-07T00:26:29;15.80;99.90
56240;DHT22;42154;51.992;5.896;2023-05-07T00:28:55;15.80;99.90
56240;DHT22;42154;51.992;5.896;2023-05-07T00:31:21;15.80;99.90
56240;DHT22;42154;51.992;5.896;2023-05-07T00:33:47;15.80;99.90
56240;DHT22;42154;51.992;5.896;2023-05-07T00:36:13;15.80;99.90
56240;DHT22;42154;51.992;5.896;2023-05-07T00:38:38;15.80;99.90
56240;DHT22;42154;51.992;5.896;2023-05-07T00:41:04;15.70;99.90
56240;DHT22;42154;51.992;5.896;2023-05-07T00:43:30;15.70;99.90
56240;DHT22;42154;51.992;5.896;2023-05-07T00:45:57;15.70;99.90
56240;DHT22;42154;51.992;5.896;2023-05-07T00:48:23;15.70;99.90
56240;DHT22;42154;51.992;5.896;2023-05-07T00:50:49;15.60;99.90
56240;DHT22;42154;51.992;5.896;2023-05-07T00:53:16;15.60;99.90
56240;DHT22;42154;51.992;5.896;2023-05-07T00:55:41;15.60;99.90
56240;DHT22;42154;51.992;5.896;2023-05-07T00:58:08;15.60;99.90
56240;DHT22;42154;51.992;5.896;2023-05-07T01:00:34;15.50;99.90
56240;DHT22;42154;51.992;5.896;2023-05-07T01:03:01;15.50;99.90
56240;DHT22;42154;51.992;5.896;2023-05-07T01:05:28;15.40;99.90
56240;DHT22;42154;51.992;5.896;2023-05-07T01:07:55;15.40;99.90
56240;DHT22;42154;51.992;5.896;2023-05-07T01:10:22;15.30;99.90
56240;DHT22;42154;51.992;5.896;2023-05-07T01:12:48;15.30;99.90
56240;DHT22;42154;51.992;5.896;2023-05-07T01:15:15;15.30;99.90
56240;DHT22;42154;51.992;5.896;2023-05-07T01:17:42;15.30;99.90
56240;DHT22;42154;51.992;5.896;2023-05-07T01:20:14;15.20;99.90
56240;DHT22;42154;51.992;5.896;2023-05-07T01:22:43;15.20;99.90
56240;DHT22;42154;51.992;5.896;2023-05-07T01:25:09;15.20;99.90
56240;DHT22;42154;51.992;5.896;2023-05-07T01:27:40;15.10;99.90
56240;DHT22;42154;51.992;5.896;2023-05-07T01:30:06;15.10;99.90
56240;DHT22;42154;51.992;5.896;2023-05-07T01:35:03;15.10;99.90
56240;DHT22;42154;51.992;5.896;2023-05-07T01:37:31;15.20;99.90
56240;DHT22;42154;51.992;5.896;2023-05-07T01:39:57;15.20;99.90
56240;DHT22;42154;51.992;5.896;2023-05-07T01:42:23;15.20;99.90
56240;DHT22;42154;51.992;5.896;2023-05-07T01:44:49;15.20;99.90
56240;DHT22;42154;51.992;5.896;2023-05-07T01:47:16;15.30;99.90
56240;DHT22;42154;51.992;5.896;2023-05-07T01:49:42;15.30;99.90
56240;DHT22;42154;51.992;5.896;2023-05-07T01:52:10;15.30;99.90
56240;DHT22;42154;51.992;5.896;2023-05-07T01:54:36;15.30;99.90
56240;DHT22;42154;51.992;5.896;2023-05-07T01:57:02;15.30;99.90
56240;DHT22;42154;51.992;5.896;2023-05-07T01:59:28;15.20;99.90
56240;DHT22;42154;51.992;5.896;2023-05-07T02:01:54;15.20;99.90
56240;DHT22;42154;51.992;5.896;2023-05-07T02:04:20;15.20;99.90
56240;DHT22;42154;51.992;5.896;2023-05-07T02:06:46;15.30;99.90
56240;DHT22;42154;51.992;5.896;2023-05-07T02:09:13;15.30;99.90
56240;DHT22;42154;51.992;5.896;2023-05-07T02:11:42;15.30;99.90
56240;DHT22;42154;51.992;5.896;2023-05-07T02:14:08;15.30;99.90
56240;DHT22;42154;51.992;5.896;2023-05-07T02:16:34;15.30;99.90
56240;DHT22;42154;51.992;5.896;2023-05-07T02:19:00;15.30;99.90
56240;DHT22;42154;51.992;5.896;2023-05-07T02:21:26;15.30;99.90
56240;DHT22;42154;51.992;5.896;2023-05-07T02:23:51;15.40;99.90
56240;DHT22;42154;51.992;5.896;2023-05-07T02:26:18;15.30;99.90
56240;DHT22;42154;51.992;5.896;2023-05-07T02:28:43;15.30;99.90
56240;DHT22;42154;51.992;5.896;2023-05-07T02:31:09;15.30;99.90
56240;DHT22;42154;51.992;5.896;2023-05-07T02:33:35;15.30;99.90
56240;DHT22;42154;51.992;5.896;2023-05-07T02:36:11;15.30;99.90
56240;DHT22;42154;51.992;5.896;2023-05-07T02:38:59;15.30;99.90
56240;DHT22;42154;51.992;5.896;2023-05-07T02:41:25;15.30;99.90
56240;DHT22;42154;51.992;5.896;2023-05-07T02:43:50;15.30;99.90
56240;DHT22;42154;51.992;5.896;2023-05-07T02:46:16;15.30;99.90
56240;DHT22;42154;51.992;5.896;2023-05-07T02:48:46;15.20;99.90
56240;DHT22;42154;51.992;5.896;2023-05-07T02:51:12;15.20;99.90
56240;DHT22;42154;51.992;5.896;2023-05-07T02:53:40;15.20;99.90
56240;DHT22;42154;51.992;5.896;2023-05-07T02:56:06;15.20;99.90
56240;DHT22;42154;51.992;5.896;2023-05-07T02:58:32;15.20;99.90
56240;DHT22;42154;51.992;5.896;2023-05-07T03:00:59;15.20;99.90
56240;DHT22;42154;51.992;5.896;2023-05-07T03:03:33;15.30;99.90
56240;DHT22;42154;51.992;5.896;2023-05-07T03:05:59;15.30;99.90
56240;DHT22;42154;51.992;5.896;2023-05-07T03:08:25;15.30;99.90
56240;DHT22;42154;51.992;5.896;2023-05-07T03:10:51;15.30;99.90
56240;DHT22;42154;51.992;5.896;2023-05-07T03:13:17;15.20;99.90
56240;DHT22;42154;51.992;5.896;2023-05-07T03:15:43;15.20;99.90
56240;DHT22;42154;51.992;5.896;2023-05-07T03:18:09;15.10;99.90
56240;DHT22;42154;51.992;5.896;2023-05-07T03:20:35;15.10;99.90
56240;DHT22;42154;51.992;5.896;2023-05-07T03:23:02;15.10;99.90
56240;DHT22;42154;51.992;5.896;2023-05-07T03:25:28;15.10;99.90
56240;DHT22;42154;51.992;5.896;2023-05-07T03:27:56;15.10;99.90
56240;DHT22;42154;51.992;5.896;2023-05-07T03:30:26;15.00;99.90
56240;DHT22;42154;51.992;5.896;2023-05-07T03:32:51;15.10;99.90
56240;DHT22;42154;51.992;5.896;2023-05-07T03:35:17;15.00;99.90
56240;DHT22;42154;51.992;5.896;2023-05-07T03:37:43;15.00;99.90
56240;DHT22;42154;51.992;5.896;2023-05-07T03:40:11;15.00;99.90
56240;DHT22;42154;51.992;5.896;2023-05-07T03:42:44;15.00;99.90
56240;DHT22;42154;51.992;5.896;2023-05-07T03:45:11;15.00;99.90
56240;DHT22;42154;51.992;5.896;2023-05-07T03:47:39;15.00;99.90
56240;DHT22;42154;51.992;5.896;2023-05-07T03:50:06;15.00;99.90
56240;DHT22;42154;51.992;5.896;2023-05-07T03:52:32;15.00;99.90
56240;DHT22;42154;51.992;5.896;2023-05-07T03:55:00;14.90;99.90
56240;DHT22;42154;51.992;5.896;2023-05-07T03:57:27;15.00;99.90
56240;DHT22;42154;51.992;5.896;2023-05-07T03:59:52;14.90;99.90
56240;DHT22;42154;51.992;5.896;2023-05-07T04:02:18;14.90;99.90
56240;DHT22;42154;51.992;5.896;2023-05-07T04:04:44;14.90;99.90
56240;DHT22;42154;51.992;5.896;2023-05-07T04:07:10;14.90;99.90
56240;DHT22;42154;51.992;5.896;2023-05-07T04:09:40;14.90;99.90
56240;DHT22;42154;51.992;5.896;2023-05-07T04:12:06;14.80;99.90
56240;DHT22;42154;51.992;5.896;2023-05-07T04:14:33;14.80;99.90
56240;DHT22;42154;51.992;5.896;2023-05-07T04:17:00;14.80;99.90
56240;DHT22;42154;51.992;5.896;2023-05-07T04:19:28;14.80;99.90
56240;DHT22;42154;51.992;5.896;2023-05-07T04:21:54;14.80;99.90
56240;DHT22;42154;51.992;5.896;2023-05-07T04:24:20;14.80;99.90
56240;DHT22;42154;51.992;5.896;2023-05-07T04:26:46;14.80;99.90
56240;DHT22;42154;51.992;5.896;2023-05-07T04:29:12;14.80;99.90
56240;DHT22;42154;51.992;5.896;2023-05-07T04:31:38;14.80;99.90
56240;DHT22;42154;51.992;5.896;2023-05-07T04:34:04;14.80;99.90
56240;DHT22;42154;51.992;5.896;2023-05-07T04:36:30;14.80;99.90
56240;DHT22;42154;51.992;5.896;2023-05-07T04:39:00;14.80;99.90
56240;DHT22;42154;51.992;5.896;2023-05-07T04:41:26;14.80;99.90
56240;DHT22;42154;51.992;5.896;2023-05-07T04:43:52;14.90;99.90
56240;DHT22;42154;51.992;5.896;2023-05-07T04:46:21;14.80;99.90
56240;DHT22;42154;51.992;5.896;2023-05-07T04:48:49;14.90;99.90
56240;DHT22;42154;51.992;5.896;2023-05-07T04:51:15;14.90;99.90
56240;DHT22;42154;51.992;5.896;2023-05-07T04:53:41;14.90;99.90
56240;DHT22;42154;51.992;5.896;2023-05-07T04:56:08;14.90;99.90
56240;DHT22;42154;51.992;5.896;2023-05-07T04:58:39;14.90;99.90
56240;DHT22;42154;51.992;5.896;2023-05-07T05:01:05;14.90;99.90
56240;DHT22;42154;51.992;5.896;2023-05-07T05:03:31;14.90;99.90
56240;DHT22;42154;51.992;5.896;2023-05-07T05:05:57;14.90;99.90
56240;DHT22;42154;51.992;5.896;2023-05-07T05:08:26;14.90;99.90
56240;DHT22;42154;51.992;5.896;2023-05-07T05:10:52;15.00;99.90
56240;DHT22;42154;51.992;5.896;2023-05-07T05:13:18;15.00;99.90
56240;DHT22;42154;51.992;5.896;2023-05-07T05:15:44;15.00;99.90
56240;DHT22;42154;51.992;5.896;2023-05-07T05:18:11;15.00;99.90
56240;DHT22;42154;51.992;5.896;2023-05-07T05:20:39;15.00;99.90
56240;DHT22;42154;51.992;5.896;2023-05-07T05:23:05;15.00;99.90
56240;DHT22;42154;51.992;5.896;2023-05-07T05:25:32;15.00;99.90
56240;DHT22;42154;51.992;5.896;2023-05-07T05:27:58;15.00;99.90
56240;DHT22;42154;51.992;5.896;2023-05-07T05:30:24;15.00;99.90
56240;DHT22;42154;51.992;5.896;2023-05-07T05:32:51;15.00;99.90
56240;DHT22;42154;51.992;5.896;2023-05-07T05:35:16;15.00;99.90
56240;DHT22;42154;51.992;5.896;2023-05-07T05:37:43;15.10;99.90
56240;DHT22;42154;51.992;5.896;2023-05-07T05:40:09;15.00;99.90
56240;DHT22;42154;51.992;5.896;2023-05-07T05:42:35;15.00;99.90
56240;DHT22;42154;51.992;5.896;2023-05-07T05:45:01;15.00;99.90
56240;DHT22;42154;51.992;5.896;2023-05-07T05:47:29;15.00;99.90
56240;DHT22;42154;51.992;5.896;2023-05-07T05:49:55;15.00;99.90
56240;DHT22;42154;51.992;5.896;2023-05-07T05:52:21;15.00;99.90
56240;DHT22;42154;51.992;5.896;2023-05-07T05:54:49;15.00;99.90
56240;DHT22;42154;51.992;5.896;2023-05-07T05:57:17;15.00;99.90
56240;DHT22;42154;51.992;5.896;2023-05-07T05:59:44;15.00;99.90
56240;DHT22;42154;51.992;5.896;2023-05-07T06:02:10;15.00;99.90
56240;DHT22;42154;51.992;5.896;2023-05-07T06:04:36;15.00;99.90
56240;DHT22;42154;51.992;5.896;2023-05-07T06:07:02;15.10;99.90
56240;DHT22;42154;51.992;5.896;2023-05-07T06:09:28;15.10;99.90
56240;DHT22;42154;51.992;5.896;2023-05-07T06:11:54;15.10;99.90
56240;DHT22;42154;51.992;5.896;2023-05-07T06:14:20;15.10;99.90
56240;DHT22;42154;51.992;5.896;2023-05-07T06:16:46;15.20;99.90
56240;DHT22;42154;51.992;5.896;2023-05-07T06:19:11;15.20;99.90
56240;DHT22;42154;51.992;5.896;2023-05-07T06:21:39;15.20;99.90
56240;DHT22;42154;51.992;5.896;2023-05-07T06:24:06;15.30;99.90
56240;DHT22;42154;51.992;5.896;2023-05-07T06:26:32;15.30;99.90
56240;DHT22;42154;51.992;5.896;2023-05-07T06:28:58;15.40;99.90
56240;DHT22;42154;51.992;5.896;2023-05-07T06:31:30;15.40;99.90
56240;DHT22;42154;51.992;5.896;2023-05-07T06:34:07;15.40;99.90
56240;DHT22;42154;51.992;5.896;2023-05-07T06:36:36;15.40;99.90
56240;DHT22;42154;51.992;5.896;2023-05-07T06:39:11;15.40;99.90
56240;DHT22;42154;51.992;5.896;2023-05-07T06:41:37;15.50;99.90
56240;DHT22;42154;51.992;5.896;2023-05-07T06:44:08;15.60;99.90
56240;DHT22;42154;51.992;5.896;2023-05-07T06:46:42;15.70;99.90
56240;DHT22;42154;51.992;5.896;2023-05-07T06:49:08;15.80;99.90
56240;DHT22;42154;51.992;5.896;2023-05-07T06:51:34;15.90;99.90
56240;DHT22;42154;51.992;5.896;2023-05-07T06:54:02;15.90;99.90
56240;DHT22;42154;51.992;5.896;2023-05-07T06:56:33;15.90;99.90
56240;DHT22;42154;51.992;5.896;2023-05-07T06:59:01;16.00;99.90
56240;DHT22;42154;51.992;5.896;2023-05-07T07:01:31;16.00;99.90
56240;DHT22;42154;51.992;5.896;2023-05-07T07:03:57;16.10;99.90
56240;DHT22;42154;51.992;5.896;2023-05-07T07:06:23;16.10;99.90
56240;DHT22;42154;51.992;5.896;2023-05-07T07:08:48;16.20;99.90
56240;DHT22;42154;51.992;5.896;2023-05-07T07:11:16;16.30;99.90
56240;DHT22;42154;51.992;5.896;2023-05-07T07:13:42;16.30;99.90
56240;DHT22;42154;51.992;5.896;2023-05-07T07:16:08;16.40;99.90
56240;DHT22;42154;51.992;5.896;2023-05-07T07:18:34;16.40;99.90
56240;DHT22;42154;51.992;5.896;2023-05-07T07:21:01;16.60;99.90
56240;DHT22;42154;51.992;5.896;2023-05-07T07:23:27;16.60;99.90
56240;DHT22;42154;51.992;5.896;2023-05-07T07:25:53;16.70;99.90
56240;DHT22;42154;51.992;5.896;2023-05-07T07:28:21;16.80;99.90
56240;DHT22;42154;51.992;5.896;2023-05-07T07:30:47;16.90;99.90
56240;DHT22;42154;51.992;5.896;2023-05-07T07:33:14;16.90;99.90
56240;DHT22;42154;51.992;5.896;2023-05-07T07:35:40;16.90;99.90
56240;DHT22;42154;51.992;5.896;2023-05-07T07:38:06;17.00;99.90
56240;DHT22;42154;51.992;5.896;2023-05-07T07:40:34;17.10;99.90
56240;DHT22;42154;51.992;5.896;2023-05-07T07:43:01;17.20;99.90
56240;DHT22;42154;51.992;5.896;2023-05-07T07:45:28;17.20;99.90
56240;DHT22;42154;51.992;5.896;2023-05-07T07:47:54;17.30;99.90
56240;DHT22;42154;51.992;5.896;2023-05-07T07:50:20;17.30;99.90
56240;DHT22;42154;51.992;5.896;2023-05-07T07:52:46;17.30;99.90
56240;DHT22;42154;51.992;5.896;2023-05-07T07:55:14;17.40;99.90
56240;DHT22;42154;51.992;5.896;2023-05-07T07:57:46;17.40;99.90
56240;DHT22;42154;51.992;5.896;2023-05-07T08:00:12;17.40;99.90
56240;DHT22;42154;51.992;5.896;2023-05-07T08:02:47;17.50;99.90
56240;DHT22;42154;51.992;5.896;2023-05-07T08:05:20;17.50;99.90
56240;DHT22;42154;51.992;5.896;2023-05-07T08:07:48;17.60;99.90
56240;DHT22;42154;51.992;5.896;2023-05-07T08:10:22;17.70;99.90
56240;DHT22;42154;51.992;5.896;2023-05-07T08:12:51;17.70;99.90
56240;DHT22;42154;51.992;5.896;2023-05-07T08:15:17;17.80;99.90
56240;DHT22;42154;51.992;5.896;2023-05-07T08:17:44;17.80;99.90
56240;DHT22;42154;51.992;5.896;2023-05-07T08:20:10;17.90;99.90
56240;DHT22;42154;51.992;5.896;2023-05-07T08:22:36;17.80;99.90
56240;DHT22;42154;51.992;5.896;2023-05-07T08:25:03;17.80;99.90
56240;DHT22;42154;51.992;5.896;2023-05-07T08:27:29;17.90;99.90
56240;DHT22;42154;51.992;5.896;2023-05-07T08:29:55;18.00;99.90
56240;DHT22;42154;51.992;5.896;2023-05-07T08:32:21;18.00;99.90
56240;DHT22;42154;51.992;5.896;2023-05-07T08:34:47;18.10;99.90
56240;DHT22;42154;51.992;5.896;2023-05-07T08:37:14;18.20;99.90
56240;DHT22;42154;51.992;5.896;2023-05-07T08:39:40;18.30;99.90
56240;DHT22;42154;51.992;5.896;2023-05-07T08:42:12;18.20;99.90
56240;DHT22;42154;51.992;5.896;2023-05-07T08:44:44;18.10;99.90
56240;DHT22;42154;51.992;5.896;2023-05-07T08:47:12;18.00;99.90
56240;DHT22;42154;51.992;5.896;2023-05-07T08:49:39;18.10;99.90
56240;DHT22;42154;51.992;5.896;2023-05-07T08:52:08;18.10;99.90
56240;DHT22;42154;51.992;5.896;2023-05-07T08:54:34;18.20;99.90
56240;DHT22;42154;51.992;5.896;2023-05-07T08:57:02;18.20;99.90
56240;DHT22;42154;51.992;5.896;2023-05-07T08:59:29;18.30;99.90
56240;DHT22;42154;51.992;5.896;2023-05-07T09:01:55;18.40;99.90
56240;DHT22;42154;51.992;5.896;2023-05-07T09:04:21;18.60;99.90
56240;DHT22;42154;51.992;5.896;2023-05-07T09:06:47;18.50;99.90
56240;DHT22;42154;51.992;5.896;2023-05-07T09:09:17;18.50;99.90
56240;DHT22;42154;51.992;5.896;2023-05-07T09:11:44;18.60;99.90
56240;DHT22;42154;51.992;5.896;2023-05-07T09:14:11;18.70;99.90
56240;DHT22;42154;51.992;5.896;2023-05-07T09:16:40;18.80;99.90
56240;DHT22;42154;51.992;5.896;2023-05-07T09:19:07;18.90;99.90
56240;DHT22;42154;51.992;5.896;2023-05-07T09:21:33;18.90;99.90
56240;DHT22;42154;51.992;5.896;2023-05-07T09:24:02;19.10;99.90
56240;DHT22;42154;51.992;5.896;2023-05-07T09:26:34;19.10;99.90
56240;DHT22;42154;51.992;5.896;2023-05-07T09:29:02;19.00;99.90
56240;DHT22;42154;51.992;5.896;2023-05-07T09:31:29;19.00;99.90
56240;DHT22;42154;51.992;5.896;2023-05-07T09:33:55;19.00;99.90
56240;DHT22;42154;51.992;5.896;2023-05-07T09:36:23;19.10;99.90
56240;DHT22;42154;51.992;5.896;2023-05-07T09:38:49;19.40;99.90
56240;DHT22;42154;51.992;5.896;2023-05-07T09:41:16;19.60;99.90
56240;DHT22;42154;51.992;5.896;2023-05-07T09:44:02;19.70;99.90
56240;DHT22;42154;51.992;5.896;2023-05-07T09:46:38;19.70;99.90
56240;DHT22;42154;51.992;5.896;2023-05-07T09:49:18;19.80;99.90
56240;DHT22;42154;51.992;5.896;2023-05-07T09:51:48;20.00;99.90
56240;DHT22;42154;51.992;5.896;2023-05-07T09:54:16;20.20;99.90
56240;DHT22;42154;51.992;5.896;2023-05-07T09:56:45;20.30;99.90
56240;DHT22;42154;51.992;5.896;2023-05-07T09:59:13;20.30;99.90
56240;DHT22;42154;51.992;5.896;2023-05-07T10:01:44;20.30;99.90
56240;DHT22;42154;51.992;5.896;2023-05-07T10:04:12;20.40;99.90
56240;DHT22;42154;51.992;5.896;2023-05-07T10:06:41;20.50;99.90
56240;DHT22;42154;51.992;5.896;2023-05-07T10:09:09;20.70;99.90
56240;DHT22;42154;51.992;5.896;2023-05-07T10:11:37;20.80;99.90
56240;DHT22;42154;51.992;5.896;2023-05-07T10:14:04;21.00;99.90
56240;DHT22;42154;51.992;5.896;2023-05-07T10:16:34;21.10;99.90
56240;DHT22;42154;51.992;5.896;2023-05-07T10:19:03;21.10;99.90
56240;DHT22;42154;51.992;5.896;2023-05-07T10:21:30;21.20;99.90
56240;DHT22;42154;51.992;5.896;2023-05-07T10:24:04;21.30;99.90
56240;DHT22;42154;51.992;5.896;2023-05-07T10:26:34;21.30;99.90
56240;DHT22;42154;51.992;5.896;2023-05-07T10:29:14;21.30;99.90
56240;DHT22;42154;51.992;5.896;2023-05-07T10:32:08;21.40;99.90
56240;DHT22;42154;51.992;5.896;2023-05-07T10:34:42;21.60;99.90
56240;DHT22;42154;51.992;5.896;2023-05-07T10:37:10;21.80;99.90
56240;DHT22;42154;51.992;5.896;2023-05-07T10:39:37;21.80;99.90
56240;DHT22;42154;51.992;5.896;2023-05-07T10:42:13;21.80;99.90
56240;DHT22;42154;51.992;5.896;2023-05-07T10:44:45;21.80;99.90
56240;DHT22;42154;51.992;5.896;2023-05-07T10:47:17;21.70;99.90
56240;DHT22;42154;51.992;5.896;2023-05-07T10:52:24;21.80;99.90
56240;DHT22;42154;51.992;5.896;2023-05-07T10:57:50;22.10;99.90
56240;DHT22;42154;51.992;5.896;2023-05-07T11:05:29;22.40;99.90
56240;DHT22;42154;51.992;5.896;2023-05-07T11:08:12;22.30;99.90
56240;DHT22;42154;51.992;5.896;2023-05-07T11:10:56;22.30;99.90
56240;DHT22;42154;51.992;5.896;2023-05-07T11:13:45;22.40;99.90
56240;DHT22;42154;51.992;5.896;2023-05-07T11:16:23;22.40;99.90
56240;DHT22;42154;51.992;5.896;2023-05-07T11:18:56;22.50;99.90
56240;DHT22;42154;51.992;5.896;2023-05-07T11:21:38;22.50;99.90
56240;DHT22;42154;51.992;5.896;2023-05-07T11:24:21;22.50;99.90
56240;DHT22;42154;51.992;5.896;2023-05-07T11:26:52;22.50;99.90
56240;DHT22;42154;51.992;5.896;2023-05-07T11:29:21;22.50;99.90
56240;DHT22;42154;51.992;5.896;2023-05-07T11:31:52;22.50;99.90
56240;DHT22;42154;51.992;5.896;2023-05-07T11:34:25;22.60;99.90
56240;DHT22;42154;51.992;5.896;2023-05-07T11:36:52;22.80;99.90
56240;DHT22;42154;51.992;5.896;2023-05-07T11:39:32;22.70;99.90
56240;DHT22;42154;51.992;5.896;2023-05-07T11:42:02;22.80;99.90
56240;DHT22;42154;51.992;5.896;2023-05-07T11:44:44;22.80;99.90
56240;DHT22;42154;51.992;5.896;2023-05-07T11:47:16;22.80;99.90
56240;DHT22;42154;51.992;5.896;2023-05-07T11:49:42;22.90;99.90
56240;DHT22;42154;51.992;5.896;2023-05-07T11:52:08;22.80;99.90
56240;DHT22;42154;51.992;5.896;2023-05-07T11:54:37;22.80;99.90
56240;DHT22;42154;51.992;5.896;2023-05-07T11:57:03;22.90;99.90
56240;DHT22;42154;51.992;5.896;2023-05-07T11:59:29;23.00;99.90
56240;DHT22;42154;51.992;5.896;2023-05-07T12:01:57;23.10;99.90
56240;DHT22;42154;51.992;5.896;2023-05-07T12:04:24;22.90;99.90
56240;DHT22;42154;51.992;5.896;2023-05-07T12:06:54;22.90;99.90
56240;DHT22;42154;51.992;5.896;2023-05-07T12:09:21;23.00;99.90
56240;DHT22;42154;51.992;5.896;2023-05-07T12:11:47;22.90;99.90
56240;DHT22;42154;51.992;5.896;2023-05-07T12:14:13;22.90;99.90
56240;DHT22;42154;51.992;5.896;2023-05-07T12:16:41;23.00;99.90
56240;DHT22;42154;51.992;5.896;2023-05-07T12:19:08;23.00;99.90
56240;DHT22;42154;51.992;5.896;2023-05-07T12:21:34;23.10;99.90
56240;DHT22;42154;51.992;5.896;2023-05-07T12:24:01;23.30;99.90
56240;DHT22;42154;51.992;5.896;2023-05-07T12:26:27;23.30;99.90
56240;DHT22;42154;51.992;5.896;2023-05-07T12:28:53;23.30;99.90
56240;DHT22;42154;51.992;5.896;2023-05-07T12:31:18;23.40;99.90
56240;DHT22;42154;51.992;5.896;2023-05-07T12:33:46;23.50;99.90
56240;DHT22;42154;51.992;5.896;2023-05-07T12:36:12;23.60;99.90
56240;DHT22;42154;51.992;5.896;2023-05-07T12:38:39;23.60;99.90
56240;DHT22;42154;51.992;5.896;2023-05-07T12:41:08;23.60;99.90
56240;DHT22;42154;51.992;5.896;2023-05-07T12:43:34;23.60;99.90
56240;DHT22;42154;51.992;5.896;2023-05-07T12:46:04;23.60;99.90
56240;DHT22;42154;51.992;5.896;2023-05-07T12:48:30;23.60;99.90
56240;DHT22;42154;51.992;5.896;2023-05-07T12:50:58;23.60;99.90
56240;DHT22;42154;51.992;5.896;2023-05-07T12:53:26;23.60;99.90
56240;DHT22;42154;51.992;5.896;2023-05-07T12:55:54;23.60;99.90
56240;DHT22;42154;51.992;5.896;2023-05-07T12:58:25;23.70;99.90
56240;DHT22;42154;51.992;5.896;2023-05-07T13:00:52;23.70;99.90
56240;DHT22;42154;51.992;5.896;2023-05-07T13:03:29;23.60;99.90
56240;DHT22;42154;51.992;5.896;2023-05-07T13:06:03;23.60;99.90
56240;DHT22;42154;51.992;5.896;2023-05-07T13:08:35;23.60;99.90
56240;DHT22;42154;51.992;5.896;2023-05-07T13:11:04;23.60;99.90
56240;DHT22;42154;51.992;5.896;2023-05-07T13:13:31;23.70;99.90
56240;DHT22;42154;51.992;5.896;2023-05-07T13:15:56;23.70;99.90
56240;DHT22;42154;51.992;5.896;2023-05-07T13:18:25;23.80;99.90
56240;DHT22;42154;51.992;5.896;2023-05-07T13:20:51;23.80;99.90
56240;DHT22;42154;51.992;5.896;2023-05-07T13:23:17;23.80;99.90
56240;DHT22;42154;51.992;5.896;2023-05-07T13:25:43;23.70;99.90
56240;DHT22;42154;51.992;5.896;2023-05-07T13:28:09;23.50;99.90
56240;DHT22;42154;51.992;5.896;2023-05-07T13:30:34;23.40;99.90
56240;DHT22;42154;51.992;5.896;2023-05-07T13:33:00;23.30;99.90
56240;DHT22;42154;51.992;5.896;2023-05-07T13:35:26;23.20;99.90
56240;DHT22;42154;51.992;5.896;2023-05-07T13:37:52;23.20;99.90
56240;DHT22;42154;51.992;5.896;2023-05-07T13:40:18;23.20;99.90
56240;DHT22;42154;51.992;5.896;2023-05-07T13:42:44;23.20;99.90
56240;DHT22;42154;51.992;5.896;2023-05-07T13:45:10;23.30;99.90
56240;DHT22;42154;51.992;5.896;2023-05-07T13:47:40;23.30;99.90
56240;DHT22;42154;51.992;5.896;2023-05-07T13:50:08;23.20;99.90
56240;DHT22;42154;51.992;5.896;2023-05-07T13:52:33;23.10;99.90
56240;DHT22;42154;51.992;5.896;2023-05-07T13:54:59;23.10;99.90
56240;DHT22;42154;51.992;5.896;2023-05-07T13:57:25;23.10;99.90
56240;DHT22;42154;51.992;5.896;2023-05-07T13:59:51;23.30;99.90
56240;DHT22;42154;51.992;5.896;2023-05-07T14:02:16;23.30;99.90
56240;DHT22;42154;51.992;5.896;2023-05-07T14:04:42;23.30;99.90
56240;DHT22;42154;51.992;5.896;2023-05-07T14:07:08;23.30;99.90
56240;DHT22;42154;51.992;5.896;2023-05-07T14:09:34;23.50;99.90
56240;DHT22;42154;51.992;5.896;2023-05-07T14:11:59;23.70;99.90
56240;DHT22;42154;51.992;5.896;2023-05-07T14:14:25;23.80;99.90
56240;DHT22;42154;51.992;5.896;2023-05-07T14:16:51;24.00;99.90
56240;DHT22;42154;51.992;5.896;2023-05-07T14:19:17;24.10;99.90
56240;DHT22;42154;51.992;5.896;2023-05-07T14:21:42;24.20;99.90
56240;DHT22;42154;51.992;5.896;2023-05-07T14:24:08;24.20;99.90
56240;DHT22;42154;51.992;5.896;2023-05-07T14:26:34;24.20;99.90
56240;DHT22;42154;51.992;5.896;2023-05-07T14:29:00;24.10;99.90
56240;DHT22;42154;51.992;5.896;2023-05-07T14:31:26;23.90;99.90
56240;DHT22;42154;51.992;5.896;2023-05-07T14:33:51;23.80;99.90
56240;DHT22;42154;51.992;5.896;2023-05-07T14:36:18;23.80;99.90
56240;DHT22;42154;51.992;5.896;2023-05-07T14:38:48;23.80;99.90
56240;DHT22;42154;51.992;5.896;2023-05-07T14:41:15;23.80;99.90
56240;DHT22;42154;51.992;5.896;2023-05-07T14:43:42;23.80;99.90
56240;DHT22;42154;51.992;5.896;2023-05-07T14:46:09;23.60;99.90
56240;DHT22;42154;51.992;5.896;2023-05-07T14:48:35;23.50;99.90
56240;DHT22;42154;51.992;5.896;2023-05-07T14:51:00;23.40;99.90
56240;DHT22;42154;51.992;5.896;2023-05-07T14:53:26;23.30;99.90
56240;DHT22;42154;51.992;5.896;2023-05-07T14:55:52;23.10;99.90
56240;DHT22;42154;51.992;5.896;2023-05-07T14:58:18;22.90;99.90
56240;DHT22;42154;51.992;5.896;2023-05-07T15:00:43;22.80;99.90
56240;DHT22;42154;51.992;5.896;2023-05-07T15:03:10;22.80;99.90
56240;DHT22;42154;51.992;5.896;2023-05-07T15:05:37;22.90;99.90
56240;DHT22;42154;51.992;5.896;2023-05-07T15:08:03;22.90;99.90
56240;DHT22;42154;51.992;5.896;2023-05-07T15:10:29;22.70;99.90
56240;DHT22;42154;51.992;5.896;2023-05-07T15:12:54;22.70;99.90
56240;DHT22;42154;51.992;5.896;2023-05-07T15:15:20;22.60;99.90
56240;DHT22;42154;51.992;5.896;2023-05-07T15:17:46;22.50;99.90
56240;DHT22;42154;51.992;5.896;2023-05-07T15:20:11;22.40;99.90
56240;DHT22;42154;51.992;5.896;2023-05-07T15:22:37;22.40;99.90
56240;DHT22;42154;51.992;5.896;2023-05-07T15:25:04;22.40;99.90
56240;DHT22;42154;51.992;5.896;2023-05-07T15:27:30;22.40;99.90
56240;DHT22;42154;51.992;5.896;2023-05-07T15:29:57;22.30;99.90
56240;DHT22;42154;51.992;5.896;2023-05-07T15:32:23;22.30;99.90
56240;DHT22;42154;51.992;5.896;2023-05-07T15:34:48;22.40;99.90
56240;DHT22;42154;51.992;5.896;2023-05-07T15:37:14;22.50;99.90
56240;DHT22;42154;51.992;5.896;2023-05-07T15:39:40;22.60;99.90
56240;DHT22;42154;51.992;5.896;2023-05-07T15:42:06;22.60;99.90
56240;DHT22;42154;51.992;5.896;2023-05-07T15:44:32;22.50;99.90
56240;DHT22;42154;51.992;5.896;2023-05-07T15:47:00;22.40;99.90